createdAt,value
2022-11-14T00:01:03.557Z,29.9
2022-11-14T00:02:11.898Z,29.9
2022-11-14T00:03:20.236Z,29.9
2022-11-14T00:04:29.774Z,31.9
2022-11-14T00:05:37.253Z,31.9
2022-11-14T00:06:45.542Z,31.9
2022-11-14T00:07:54.017Z,31.700001
2022-11-14T00:09:02.360Z,31.700001
2022-11-14T00:10:10.693Z,31.700001
2022-11-14T00:11:19.235Z,32.400002
2022-11-14T00:12:27.563Z,32.400002
2022-11-14T00:13:35.902Z,32.400002
2022-11-14T00:14:44.459Z,30.700001
2022-11-14T00:15:52.781Z,30.700001
2022-11-14T00:17:01.121Z,30.700001
2022-11-14T00:18:09.684Z,29.5
2022-11-14T00:19:18.015Z,29.5
2022-11-14T00:20:26.352Z,29.5
2022-11-14T00:21:35.011Z,31
2022-11-14T00:22:43.219Z,31
2022-11-14T00:23:51.569Z,31
2022-11-14T00:25:00.131Z,33
2022-11-14T00:26:08.452Z,33
2022-11-14T00:27:16.791Z,33
2022-11-14T00:28:25.356Z,31.9
2022-11-14T00:29:33.716Z,31.9
2022-11-14T00:30:42.047Z,31.9
2022-11-14T00:31:50.596Z,31.200001
2022-11-14T00:32:58.935Z,31.200001
2022-11-14T00:34:07.275Z,31.200001
2022-11-14T00:35:15.824Z,31
2022-11-14T00:36:24.169Z,31
2022-11-14T00:37:32.623Z,31
2022-11-14T00:38:41.057Z,29.299999
2022-11-14T00:39:49.395Z,29.299999
2022-11-14T00:40:57.739Z,29.299999
2022-11-14T00:42:06.288Z,31.4
2022-11-14T00:43:14.622Z,31.4
2022-11-14T00:44:22.974Z,31.4
2022-11-14T00:45:31.525Z,30.4
2022-11-14T00:46:39.859Z,30.4
2022-11-14T00:47:48.200Z,30.4
2022-11-14T00:48:56.747Z,30.799999
2022-11-14T00:50:05.092Z,30.799999
2022-11-14T00:51:13.416Z,30.799999
2022-11-14T00:52:21.964Z,29.4
2022-11-14T00:53:30.413Z,29.4
2022-11-14T00:54:38.629Z,29.4
2022-11-14T00:55:47.168Z,31.1
2022-11-14T00:56:55.498Z,31.1
2022-11-14T00:58:03.833Z,31.1
2022-11-14T00:59:12.380Z,30.700001
2022-11-14T01:00:20.711Z,30.700001
2022-11-14T01:01:29.046Z,30.700001
2022-11-14T01:02:37.583Z,35.099998
2022-11-14T01:03:45.908Z,35.099998
2022-11-14T01:04:54.255Z,35.099998
2022-11-14T01:06:02.799Z,36.900002
2022-11-14T01:07:11.179Z,36.900002
2022-11-14T01:08:19.501Z,36.900002
2022-11-14T01:09:28.221Z,35
2022-11-14T01:10:36.400Z,35
2022-11-14T01:11:44.729Z,35
2022-11-14T01:12:53.281Z,32
2022-11-14T01:14:01.623Z,32
2022-11-14T01:15:09.979Z,32
2022-11-14T01:16:18.525Z,33.400002
2022-11-14T01:17:26.860Z,33.400002
2022-11-14T01:18:35.194Z,33.400002
2022-11-14T01:19:43.743Z,34.099998
2022-11-14T01:20:52.083Z,34.099998
2022-11-14T01:22:04.736Z,34.099998
2022-11-14T01:23:08.951Z,32.200001
2022-11-14T01:24:17.297Z,32.200001
2022-11-14T01:25:25.742Z,32.200001
2022-11-14T01:26:34.172Z,31.299999
2022-11-14T01:27:42.499Z,31.299999
2022-11-14T01:28:50.838Z,31.299999
2022-11-14T01:29:59.375Z,32.5
2022-11-14T01:31:07.713Z,32.5
2022-11-14T01:32:16.042Z,32.5
2022-11-14T01:33:24.589Z,33.900002
2022-11-14T01:34:32.925Z,33.900002
2022-11-14T01:35:41.249Z,33.900002
2022-11-14T01:36:49.792Z,32.599998
2022-11-14T01:37:58.124Z,32.599998
2022-11-14T01:39:06.473Z,32.599998
2022-11-14T01:40:15.010Z,29.5
2022-11-14T01:41:23.459Z,29.5
2022-11-14T01:42:31.680Z,29.5
2022-11-14T01:43:40.240Z,32.900002
2022-11-14T01:44:48.573Z,32.900002
2022-11-14T01:45:56.913Z,32.900002
2022-11-14T01:47:05.452Z,31.9
2022-11-14T01:48:13.787Z,31.9
2022-11-14T01:49:22.156Z,31.9
2022-11-14T01:50:30.701Z,30.5
2022-11-14T01:51:39.073Z,30.5
2022-11-14T01:52:47.411Z,30.5
2022-11-14T01:53:55.959Z,30.700001
2022-11-14T01:55:04.303Z,30.700001
2022-11-14T01:56:12.640Z,30.700001
2022-11-14T01:57:21.301Z,30.1
2022-11-14T01:58:29.694Z,30.1
2022-11-14T01:59:37.870Z,30.1
2022-11-14T02:00:46.405Z,31.299999
2022-11-14T02:01:54.776Z,31.299999
2022-11-14T02:03:03.083Z,31.299999
2022-11-14T02:04:15.066Z,30.9
2022-11-14T02:05:20.007Z,30.9
2022-11-14T02:06:28.339Z,30.9
2022-11-14T02:07:36.983Z,31.4
2022-11-14T02:08:45.242Z,31.4
2022-11-14T02:09:53.563Z,31.4
2022-11-14T02:11:02.104Z,31.9
2022-11-14T02:12:10.442Z,31.9
2022-11-14T02:13:18.898Z,31.9
2022-11-14T02:14:27.318Z,31.5
2022-11-14T02:15:35.656Z,31.5
2022-11-14T02:16:55.628Z,31.5
2022-11-14T02:17:52.525Z,33.400002
2022-11-14T02:19:00.896Z,33.400002
2022-11-14T02:20:09.229Z,33.400002
2022-11-14T02:21:17.772Z,32.099998
2022-11-14T02:22:26.104Z,32.099998
2022-11-14T02:23:34.456Z,32.099998
2022-11-14T02:24:43.002Z,35
2022-11-14T02:25:51.333Z,35
2022-11-14T02:26:59.674Z,35
2022-11-14T02:28:08.225Z,33
2022-11-14T02:29:16.682Z,33
2022-11-14T02:30:24.891Z,33
2022-11-14T02:31:33.430Z,32.700001
2022-11-14T02:33:50.118Z,32.700001
2022-11-14T02:34:58.667Z,32.700001
2022-11-14T02:36:06.996Z,32.700001
2022-11-14T02:37:15.337Z,32.700001
2022-11-14T02:38:23.877Z,32.900002
2022-11-14T02:39:32.228Z,32.900002
2022-11-14T02:40:40.569Z,32.900002
2022-11-14T02:41:49.101Z,32.900002
2022-11-14T02:42:57.461Z,32.900002
2022-11-14T02:44:05.789Z,32.900002
2022-11-14T02:45:14.447Z,33.5
2022-11-14T02:46:22.674Z,33.5
2022-11-14T02:47:31.006Z,33.5
2022-11-14T02:48:39.559Z,34.299999
2022-11-14T02:49:47.897Z,34.299999
2022-11-14T02:50:56.222Z,34.299999
2022-11-14T02:52:04.761Z,33
2022-11-14T02:53:13.106Z,33
2022-11-14T02:54:21.448Z,33
2022-11-14T02:55:29.992Z,33.599998
2022-11-14T02:56:38.330Z,33.599998
2022-11-14T02:57:46.679Z,33.599998
2022-11-14T02:58:55.220Z,34.799999
2022-11-14T03:00:03.556Z,34.799999
2022-11-14T03:01:20.592Z,34.799999
2022-11-14T03:02:20.428Z,32.900002
2022-11-14T03:03:28.785Z,32.900002
2022-11-14T03:04:37.113Z,32.900002
2022-11-14T03:05:45.662Z,33.900002
2022-11-14T03:06:54.030Z,33.900002
2022-11-14T03:08:02.349Z,33.900002
2022-11-14T03:09:10.888Z,33.299999
2022-11-14T03:10:19.221Z,33.299999
2022-11-14T03:11:27.555Z,33.299999
2022-11-14T03:12:36.105Z,34.299999
2022-11-14T03:13:44.453Z,34.299999
2022-11-14T03:14:52.785Z,34.299999
2022-11-14T03:16:01.326Z,33
2022-11-14T03:17:09.789Z,33
2022-11-14T03:18:18.019Z,33
2022-11-14T03:19:26.559Z,33.400002
2022-11-14T03:20:34.903Z,33.400002
2022-11-14T03:21:43.215Z,33.400002
2022-11-14T03:22:51.776Z,31.299999
2022-11-14T03:24:00.108Z,31.299999
2022-11-14T03:25:08.447Z,31.299999
2022-11-14T03:26:17.003Z,31.4
2022-11-14T03:27:25.364Z,31.4
2022-11-14T03:28:33.724Z,31.4
2022-11-14T03:29:42.256Z,32.299999
2022-11-14T03:30:50.632Z,32.299999
2022-11-14T03:31:58.972Z,32.299999
2022-11-14T03:33:07.636Z,33.299999
2022-11-14T03:34:15.855Z,33.299999
2022-11-14T03:35:24.192Z,33.299999
2022-11-14T03:36:32.776Z,36.200001
2022-11-14T03:37:41.166Z,36.200001
2022-11-14T03:38:49.481Z,36.200001
2022-11-14T03:39:58.017Z,32.099998
2022-11-14T03:41:06.357Z,32.099998
2022-11-14T03:42:14.684Z,32.099998
2022-11-14T03:43:23.248Z,30.299999
2022-11-14T03:44:31.581Z,30.299999
2022-11-14T03:45:39.916Z,30.299999
2022-11-14T03:46:48.466Z,33.599998
2022-11-14T03:47:56.803Z,33.599998
2022-11-14T03:49:05.300Z,33.599998
2022-11-14T03:50:13.737Z,34.400002
2022-11-14T03:51:22.055Z,34.400002
2022-11-14T03:52:30.395Z,34.400002
2022-11-14T03:53:38.945Z,32.799999
2022-11-14T03:54:47.277Z,32.799999
2022-11-14T03:55:55.629Z,32.799999
2022-11-14T03:57:04.163Z,31.700001
2022-11-14T03:58:12.510Z,31.700001
2022-11-14T03:59:20.840Z,31.700001
2022-11-14T04:00:29.482Z,32.299999
2022-11-14T04:01:37.724Z,32.299999
2022-11-14T04:02:46.053Z,32.299999
2022-11-14T04:03:54.670Z,31.9
2022-11-14T04:05:03.132Z,31.9
2022-11-14T04:06:11.336Z,31.9
2022-11-14T04:07:19.906Z,34.099998
2022-11-14T04:08:28.454Z,34.099998
2022-11-14T04:09:36.543Z,34.099998
2022-11-14T04:10:45.083Z,30.299999
2022-11-14T04:11:53.420Z,30.299999
2022-11-14T04:13:01.758Z,30.299999
2022-11-14T04:14:10.293Z,30.4
2022-11-14T04:15:18.635Z,30.4
2022-11-14T04:16:26.971Z,30.4
2022-11-14T04:17:39.572Z,32.700001
2022-11-14T04:18:43.853Z,32.700001
2022-11-14T04:19:52.192Z,32.700001
2022-11-14T04:21:00.850Z,33.200001
2022-11-14T04:22:09.053Z,33.200001
2022-11-14T04:23:17.395Z,33.200001
2022-11-14T04:24:25.940Z,33
2022-11-14T04:25:34.272Z,33
2022-11-14T04:26:42.610Z,33
2022-11-14T04:27:51.165Z,33.900002
2022-11-14T04:28:59.494Z,33.900002
2022-11-14T04:30:07.832Z,33.900002
2022-11-14T04:31:16.369Z,30.799999
2022-11-14T04:32:24.716Z,30.799999
2022-11-14T04:33:33.059Z,30.799999
2022-11-14T04:34:41.654Z,30.9
2022-11-14T04:35:49.994Z,30.9
2022-11-14T04:36:58.463Z,30.9
2022-11-14T04:38:06.884Z,31.4
2022-11-14T04:39:15.288Z,31.4
2022-11-14T04:40:23.632Z,31.4
2022-11-14T04:41:32.214Z,33.799999
2022-11-14T04:42:40.561Z,33.799999
2022-11-14T04:43:50.878Z,33.799999
2022-11-14T04:44:57.504Z,31.799999
2022-11-14T04:46:05.793Z,31.799999
2022-11-14T04:47:14.129Z,31.799999
2022-11-14T04:48:22.674Z,33.299999
2022-11-14T04:49:31.008Z,33.299999
2022-11-14T04:50:39.337Z,33.299999
2022-11-14T04:51:47.880Z,32
2022-11-14T04:52:56.342Z,32
2022-11-14T04:54:04.555Z,32
2022-11-14T04:55:13.130Z,32.400002
2022-11-14T04:56:21.488Z,32.400002
2022-11-14T04:57:29.838Z,32.400002
2022-11-14T04:58:38.381Z,32.799999
2022-11-14T04:59:46.710Z,32.799999
2022-11-14T05:00:55.041Z,32.799999
2022-11-14T05:02:03.590Z,30.6
2022-11-14T05:03:11.927Z,30.6
2022-11-14T05:04:20.259Z,30.6
2022-11-14T05:05:28.825Z,29.4
2022-11-14T05:06:37.164Z,29.4
2022-11-14T05:07:45.535Z,29.4
2022-11-14T05:08:54.097Z,30
2022-11-14T05:10:02.406Z,30
2022-11-14T05:11:10.776Z,30
2022-11-14T05:12:19.350Z,29.700001
2022-11-14T05:13:27.712Z,29.700001
2022-11-14T05:14:36.099Z,29.700001
2022-11-14T05:15:44.646Z,31.9
2022-11-14T05:16:52.972Z,31.9
2022-11-14T05:18:01.357Z,31.9
2022-11-14T05:19:09.908Z,30.799999
2022-11-14T05:20:18.264Z,30.799999
2022-11-14T05:21:26.618Z,30.799999
2022-11-14T05:22:35.158Z,28.200001
2022-11-14T05:23:43.508Z,28.200001
2022-11-14T05:24:51.959Z,28.200001
2022-11-14T05:26:00.487Z,29.5
2022-11-14T05:27:08.833Z,29.5
2022-11-14T05:28:17.163Z,29.5
2022-11-14T05:29:25.736Z,29
2022-11-14T05:30:34.080Z,29
2022-11-14T05:31:42.413Z,29
2022-11-14T05:32:50.969Z,30.6
2022-11-14T05:33:59.281Z,30.6
2022-11-14T05:35:07.661Z,30.6
2022-11-14T05:36:16.239Z,30
2022-11-14T05:37:24.565Z,30
2022-11-14T05:38:33.162Z,30
2022-11-14T05:39:41.437Z,29.700001
2022-11-14T05:40:49.800Z,29.700001
2022-11-14T05:41:58.159Z,29.700001
2022-11-14T05:43:06.701Z,28.700001
2022-11-14T05:44:15.053Z,28.700001
2022-11-14T05:45:23.381Z,28.700001
2022-11-14T05:46:31.929Z,31.4
2022-11-14T05:47:40.263Z,31.4
2022-11-14T05:48:48.608Z,31.4
2022-11-14T05:49:57.146Z,29
2022-11-14T05:51:05.481Z,29
2022-11-14T05:52:13.822Z,29
2022-11-14T05:53:22.365Z,30.700001
2022-11-14T05:54:30.703Z,30.700001
2022-11-14T05:55:39.048Z,30.700001
2022-11-14T05:56:47.628Z,30.299999
2022-11-14T05:57:55.935Z,30.299999
2022-11-14T05:59:04.261Z,30.299999
2022-11-14T06:00:12.804Z,30.799999
2022-11-14T06:01:21.139Z,30.799999
2022-11-14T06:02:29.516Z,30.799999
2022-11-14T06:03:38.034Z,29.700001
2022-11-14T06:04:46.354Z,29.700001
2022-11-14T06:05:54.723Z,29.700001
2022-11-14T06:07:03.326Z,28.799999
2022-11-14T06:08:11.619Z,28.799999
2022-11-14T06:09:19.961Z,28.799999
2022-11-14T06:10:28.521Z,30
2022-11-14T06:11:36.852Z,30
2022-11-14T06:12:45.232Z,30
2022-11-14T06:13:53.760Z,30.299999
2022-11-14T06:15:02.092Z,30.299999
2022-11-14T06:16:10.424Z,30.299999
2022-11-14T06:17:18.991Z,29.299999
2022-11-14T06:18:27.532Z,29.299999
2022-11-14T06:19:35.664Z,29.299999
2022-11-14T06:20:44.251Z,29.200001
2022-11-14T06:21:52.614Z,29.200001
2022-11-14T06:23:00.940Z,29.200001
2022-11-14T06:24:09.535Z,28.6
2022-11-14T06:25:17.860Z,28.6
2022-11-14T06:26:26.211Z,28.6
2022-11-14T06:27:34.752Z,30.5
2022-11-14T06:28:43.122Z,30.5
2022-11-14T06:29:51.445Z,30.5
2022-11-14T06:31:00.017Z,31.5
2022-11-14T06:32:08.340Z,31.5
2022-11-14T06:33:16.706Z,31.5
2022-11-14T06:34:25.278Z,30.200001
2022-11-14T06:35:33.623Z,30.200001
2022-11-14T06:36:41.960Z,30.200001
2022-11-14T06:37:50.507Z,29.1
2022-11-14T06:38:58.871Z,29.1
2022-11-14T06:40:07.254Z,29.1
2022-11-14T06:41:15.800Z,27.1
2022-11-14T06:42:24.151Z,27.1
2022-11-14T06:43:32.486Z,27.1
2022-11-14T06:44:41.051Z,27.5
2022-11-14T06:45:49.358Z,27.5
2022-11-14T06:46:57.698Z,27.5
2022-11-14T06:48:06.242Z,27.200001
2022-11-14T06:49:14.578Z,27.200001
2022-11-14T06:50:22.915Z,27.200001
2022-11-14T06:51:31.474Z,27.5
2022-11-14T06:52:39.814Z,27.5
2022-11-14T06:53:48.148Z,27.5
2022-11-14T06:54:56.686Z,27.4
2022-11-14T06:56:05.016Z,27.4
2022-11-14T06:57:13.396Z,27.4
2022-11-14T06:58:22.400Z,26.5
2022-11-14T06:59:30.733Z,26.5
2022-11-14T07:00:39.109Z,26.5
2022-11-14T07:01:47.647Z,25.6
2022-11-14T07:02:55.996Z,25.6
2022-11-14T07:04:04.318Z,25.6
2022-11-14T07:05:12.880Z,25.700001
2022-11-14T07:06:21.240Z,25.700001
2022-11-14T07:07:29.633Z,25.700001
2022-11-14T07:08:38.185Z,26
2022-11-14T07:09:46.525Z,26
2022-11-14T07:10:54.887Z,26
2022-11-14T07:12:03.426Z,26.5
2022-11-14T07:13:11.762Z,26.5
2022-11-14T07:14:20.097Z,26.5
2022-11-14T07:15:28.632Z,26.799999
2022-11-14T07:16:37.055Z,26.799999
2022-11-14T07:17:45.367Z,26.799999
2022-11-14T07:18:53.946Z,27
2022-11-14T07:20:02.280Z,27
2022-11-14T07:21:10.663Z,27
2022-11-14T07:22:19.250Z,26.299999
2022-11-14T07:23:27.589Z,26.299999
2022-11-14T07:24:35.925Z,26.299999
2022-11-14T07:25:44.468Z,27.1
2022-11-14T07:26:52.823Z,27.1
2022-11-14T07:28:01.155Z,27.1
2022-11-14T07:29:09.706Z,25.200001
2022-11-14T07:30:18.042Z,25.200001
2022-11-14T07:31:26.378Z,25.200001
2022-11-14T07:32:34.953Z,26.200001
2022-11-14T07:33:43.256Z,26.200001
2022-11-14T07:34:51.593Z,26.200001
2022-11-14T07:36:00.134Z,24.299999
2022-11-14T07:37:08.482Z,24.299999
2022-11-14T07:38:16.816Z,24.299999
2022-11-14T07:39:25.357Z,26.1
2022-11-14T07:40:33.699Z,26.1
2022-11-14T07:41:42.045Z,26.1
2022-11-14T07:42:50.590Z,24.700001
2022-11-14T07:43:58.931Z,24.700001
2022-11-14T07:45:07.260Z,24.700001
2022-11-14T07:46:15.812Z,25.299999
2022-11-14T07:47:24.148Z,25.299999
2022-11-14T07:48:32.847Z,25.299999
2022-11-14T07:49:41.014Z,25
2022-11-14T07:50:49.356Z,25
2022-11-14T07:51:57.692Z,25
2022-11-14T07:53:06.236Z,22.9
2022-11-14T07:54:14.566Z,22.9
2022-11-14T07:55:22.923Z,22.9
2022-11-14T07:56:31.465Z,24.5
2022-11-14T07:57:41.962Z,24.5
2022-11-14T07:58:48.133Z,24.5
2022-11-14T07:59:56.693Z,24.200001
2022-11-14T08:01:05.058Z,24.200001
2022-11-14T08:02:13.350Z,24.200001
2022-11-14T08:03:21.892Z,24
2022-11-14T08:04:30.293Z,24
2022-11-14T08:05:38.617Z,24
2022-11-14T08:06:47.233Z,24.1
2022-11-14T08:07:55.529Z,24.1
2022-11-14T08:09:03.858Z,24.1
2022-11-14T08:10:12.420Z,25.700001
2022-11-14T08:11:34.466Z,25.700001
2022-11-14T08:12:29.107Z,25.700001
2022-11-14T08:13:37.651Z,25.9
2022-11-14T08:14:45.992Z,25.9
2022-11-14T08:15:54.350Z,25.9
2022-11-14T08:17:02.876Z,26.6
2022-11-14T08:18:11.215Z,26.6
2022-11-14T08:19:19.574Z,26.6
2022-11-14T08:20:28.131Z,27.5
2022-11-14T08:21:36.453Z,27.5
2022-11-14T08:22:44.791Z,27.5
2022-11-14T08:23:53.337Z,26
2022-11-14T08:25:01.684Z,26
2022-11-14T08:26:10.011Z,26
2022-11-14T08:27:18.565Z,24.799999
2022-11-14T08:28:27.273Z,24.799999
2022-11-14T08:29:35.237Z,24.799999
2022-11-14T08:30:43.788Z,25.299999
2022-11-14T08:31:55.725Z,25.299999
2022-11-14T08:33:00.473Z,25.299999
2022-11-14T08:34:09.017Z,24.700001
2022-11-14T08:35:17.352Z,24.700001
2022-11-14T08:36:25.725Z,24.700001
2022-11-14T08:37:34.242Z,23.4
2022-11-14T08:38:42.578Z,23.4
2022-11-14T08:39:50.926Z,23.4
2022-11-14T08:40:59.473Z,24
2022-11-14T08:42:07.832Z,24
2022-11-14T08:43:16.162Z,24
2022-11-14T08:44:24.707Z,24.200001
2022-11-14T08:45:33.047Z,24.200001
2022-11-14T08:46:41.402Z,24.200001
2022-11-14T08:47:49.940Z,25
2022-11-14T08:48:58.279Z,25
2022-11-14T08:50:06.608Z,25
2022-11-14T08:51:15.146Z,23.5
2022-11-14T08:52:23.577Z,23.5
2022-11-14T08:53:31.888Z,23.5
2022-11-14T08:54:40.437Z,22.6
2022-11-14T08:55:48.783Z,22.6
2022-11-14T08:56:57.118Z,22.6
2022-11-14T08:58:05.657Z,22
2022-11-14T08:59:14.008Z,22
2022-11-14T09:00:22.327Z,22
2022-11-14T09:01:30.874Z,21.1
2022-11-14T09:02:39.215Z,21.1
2022-11-14T09:03:47.627Z,21.1
2022-11-14T09:04:56.136Z,21
2022-11-14T09:06:04.419Z,21
2022-11-14T09:07:12.827Z,21
2022-11-14T09:08:21.351Z,22.200001
2022-11-14T09:09:29.656Z,22.200001
2022-11-14T09:10:37.992Z,22.200001
2022-11-14T09:11:46.545Z,19.799999
2022-11-14T09:12:54.891Z,19.799999
2022-11-14T09:14:03.237Z,19.799999
2022-11-14T09:15:11.780Z,19.5
2022-11-14T09:16:20.116Z,19.5
2022-11-14T09:17:28.455Z,19.5
2022-11-14T09:18:36.994Z,19.799999
2022-11-14T09:19:45.335Z,19.799999
2022-11-14T09:20:53.671Z,19.799999
2022-11-14T09:22:02.228Z,19.5
2022-11-14T09:23:10.559Z,19.5
2022-11-14T09:24:18.934Z,19.5
2022-11-14T09:25:27.453Z,19.5
2022-11-14T09:26:35.790Z,19.5
2022-11-14T09:27:44.145Z,19.5
2022-11-14T09:28:52.686Z,20.4
2022-11-14T09:30:01.035Z,20.4
2022-11-14T09:31:09.367Z,20.4
2022-11-14T09:32:17.930Z,18.700001
2022-11-14T09:33:26.325Z,18.700001
2022-11-14T09:34:34.603Z,18.700001
2022-11-14T09:35:43.150Z,18.5
2022-11-14T09:36:51.478Z,18.5
2022-11-14T09:37:59.818Z,18.5
2022-11-14T09:39:08.357Z,18.4
2022-11-14T09:40:16.723Z,18.4
2022-11-14T09:41:25.116Z,18.4
2022-11-14T09:42:33.593Z,18.799999
2022-11-14T09:43:41.935Z,18.799999
2022-11-14T09:44:50.269Z,18.799999
2022-11-14T09:45:58.813Z,17.4
2022-11-14T09:47:07.153Z,17.4
2022-11-14T09:48:15.553Z,17.4
2022-11-14T09:49:24.103Z,17
2022-11-14T09:50:32.440Z,17
2022-11-14T09:51:40.857Z,17
2022-11-14T09:52:49.399Z,17.5
2022-11-14T09:53:57.749Z,17.5
2022-11-14T09:55:06.097Z,17.5
2022-11-14T09:56:14.666Z,15.8
2022-11-14T09:57:22.984Z,15.8
2022-11-14T09:58:31.629Z,15.8
2022-11-14T09:59:39.868Z,17.700001
2022-11-14T10:00:48.247Z,17.700001
2022-11-14T10:01:56.695Z,17.700001
2022-11-14T10:03:05.139Z,16.200001
2022-11-14T10:04:13.473Z,16.200001
2022-11-14T10:05:21.821Z,16.200001
2022-11-14T10:06:30.363Z,17.299999
2022-11-14T10:07:38.733Z,17.299999
2022-11-14T10:08:47.056Z,17.299999
2022-11-14T10:09:55.596Z,15.3
2022-11-14T10:11:03.939Z,15.3
2022-11-14T10:12:12.337Z,15.3
2022-11-14T10:13:20.868Z,15.4
2022-11-14T10:14:29.211Z,15.4
2022-11-14T10:15:37.551Z,15.4
2022-11-14T10:16:46.099Z,17.5
2022-11-14T10:17:54.439Z,17.5
2022-11-14T10:19:02.768Z,17.5
2022-11-14T10:20:11.319Z,15
2022-11-14T10:21:19.658Z,15
2022-11-14T10:22:28.015Z,15
2022-11-14T10:23:36.546Z,15.3
2022-11-14T10:24:44.888Z,15.3
2022-11-14T10:25:53.286Z,15.3
2022-11-14T10:27:01.822Z,16.200001
2022-11-14T10:28:10.204Z,16.200001
2022-11-14T10:29:18.527Z,16.200001
2022-11-14T10:30:27.089Z,16.700001
2022-11-14T10:31:35.428Z,16.700001
2022-11-14T10:32:43.766Z,16.700001
2022-11-14T10:33:52.309Z,14
2022-11-14T10:35:00.631Z,14
2022-11-14T10:36:08.995Z,14
2022-11-14T10:37:17.553Z,14
2022-11-14T10:38:25.895Z,14
2022-11-14T10:39:34.222Z,14
2022-11-14T10:40:42.775Z,12.9
2022-11-14T10:41:57.712Z,12.9
2022-11-14T10:42:59.466Z,12.9
2022-11-14T10:44:08.034Z,13.7
2022-11-14T10:45:16.343Z,13.7
2022-11-14T10:46:24.685Z,13.7
2022-11-14T10:47:33.249Z,12.5
2022-11-14T10:48:41.572Z,12.5
2022-11-14T10:49:49.906Z,12.5
2022-11-14T10:50:58.460Z,11.9
2022-11-14T10:52:06.819Z,11.9
2022-11-14T10:53:15.155Z,11.9
2022-11-14T10:54:23.698Z,12.4
2022-11-14T10:56:03.501Z,12.4
2022-11-14T10:56:40.384Z,12.4
2022-11-14T10:57:48.929Z,13.4
2022-11-14T10:58:57.263Z,13.4
2022-11-14T11:00:05.631Z,13.4
2022-11-14T11:01:14.165Z,12.7
2022-11-14T11:02:22.495Z,12.7
2022-11-14T11:03:30.878Z,12.7
2022-11-14T11:04:39.373Z,11.7
2022-11-14T11:05:47.707Z,11.7
2022-11-14T11:06:56.079Z,11.7
2022-11-14T11:08:21.398Z,12.5
2022-11-14T11:09:12.986Z,12.5
2022-11-14T11:10:21.270Z,12.5
2022-11-14T11:11:29.822Z,11.7
2022-11-14T11:12:38.204Z,11.7
2022-11-14T11:13:46.505Z,11.7
2022-11-14T11:14:55.048Z,11.8
2022-11-14T11:16:03.427Z,11.8
2022-11-14T11:17:11.727Z,11.8
2022-11-14T11:18:20.267Z,11.8
2022-11-14T11:19:28.610Z,11.8
2022-11-14T11:20:36.957Z,11.8
2022-11-14T11:21:45.571Z,11.9
2022-11-14T11:22:53.830Z,11.9
2022-11-14T11:24:02.173Z,11.9
2022-11-14T11:25:10.699Z,10.5
2022-11-14T11:26:19.036Z,10.5
2022-11-14T11:27:27.379Z,10.5
2022-11-14T11:28:35.928Z,9.8
2022-11-14T11:29:44.268Z,9.8
2022-11-14T11:30:54.425Z,9.8
2022-11-14T11:32:01.200Z,8.3
2022-11-14T11:33:09.485Z,8.3
2022-11-14T11:34:17.829Z,8.3
2022-11-14T11:35:26.392Z,9.6
2022-11-14T11:36:34.716Z,9.6
2022-11-14T11:37:43.065Z,9.6
2022-11-14T11:38:51.659Z,8.6
2022-11-14T11:39:59.988Z,8.6
2022-11-14T11:41:11.664Z,8.6
2022-11-14T11:42:16.875Z,8.6
2022-11-14T11:43:38.663Z,8.6
2022-11-14T11:44:33.547Z,8.6
2022-11-14T11:45:42.082Z,9.1
2022-11-14T11:46:50.447Z,9.1
2022-11-14T11:47:58.808Z,9.1
2022-11-14T11:49:07.392Z,9
2022-11-14T11:50:16.006Z,9
2022-11-14T11:51:24.094Z,9
2022-11-14T11:52:32.648Z,10.7
2022-11-14T11:53:40.984Z,10.7
2022-11-14T11:54:49.328Z,10.7
2022-11-14T11:55:57.866Z,10.4
2022-11-14T11:57:06.223Z,10.4
2022-11-14T11:58:14.560Z,10.4
2022-11-14T11:59:23.109Z,9.4
2022-11-14T12:00:31.441Z,9.4
2022-11-14T12:01:39.779Z,9.4
2022-11-14T12:02:50.259Z,8.7
2022-11-14T12:03:56.763Z,8.7
2022-11-14T12:05:05.022Z,8.7
2022-11-14T12:06:13.570Z,4.6
2022-11-14T12:07:21.952Z,4.6
2022-11-14T12:08:30.271Z,4.6
2022-11-14T12:10:08.586Z,4.1
2022-11-14T12:10:47.157Z,4.1
2022-11-14T12:11:55.497Z,4.1
2022-11-14T12:13:04.057Z,4
2022-11-14T12:14:12.395Z,4
2022-11-14T12:15:20.782Z,4
2022-11-14T12:16:29.338Z,6.2
2022-11-14T12:17:37.676Z,6.2
2022-11-14T12:18:46.008Z,6.2
2022-11-14T12:19:54.799Z,3.9
2022-11-14T12:21:02.899Z,3.9
2022-11-14T12:22:11.258Z,3.9
2022-11-14T12:23:19.828Z,4.1
2022-11-14T12:24:28.159Z,4.1
2022-11-14T12:25:36.491Z,4.1
2022-11-14T12:26:45.070Z,4.4
2022-11-14T12:27:53.425Z,4.4
2022-11-14T12:29:01.741Z,4.4
2022-11-14T12:30:10.327Z,5
2022-11-14T12:31:18.637Z,5
2022-11-14T12:32:26.985Z,5
2022-11-14T12:33:35.535Z,4.1
2022-11-14T12:34:43.874Z,4.1
2022-11-14T12:35:52.233Z,4.1
2022-11-14T12:37:00.777Z,4.4
2022-11-14T12:38:09.085Z,4.4
2022-11-14T12:39:17.424Z,4.4
2022-11-14T12:40:25.969Z,6
2022-11-14T12:41:34.313Z,6
2022-11-14T12:42:42.651Z,6
2022-11-14T12:43:51.203Z,5.5
2022-11-14T12:44:59.528Z,5.5
2022-11-14T12:46:07.861Z,5.5
2022-11-14T12:47:16.405Z,5.2
2022-11-14T12:48:24.762Z,5.2
2022-11-14T12:49:35.380Z,5.2
2022-11-14T12:50:41.761Z,4.6
2022-11-14T12:51:50.014Z,4.6
2022-11-14T12:52:58.319Z,4.6
2022-11-14T12:54:06.855Z,5
2022-11-14T12:55:15.200Z,5
2022-11-14T12:56:23.565Z,5
2022-11-14T12:57:32.100Z,4.6
2022-11-14T12:58:40.434Z,4.6
2022-11-14T12:59:48.770Z,4.6
2022-11-14T13:00:57.361Z,7.6
2022-11-14T13:02:05.658Z,7.6
2022-11-14T13:03:13.997Z,7.6
2022-11-14T13:04:22.542Z,5.7
2022-11-14T13:05:30.895Z,5.7
2022-11-14T13:06:39.237Z,5.7
2022-11-14T13:07:47.835Z,5.7
2022-11-14T13:08:56.111Z,5.7
2022-11-14T13:10:04.478Z,5.7
2022-11-14T13:11:13.032Z,5.4
2022-11-14T13:12:21.384Z,5.4
2022-11-14T13:13:30.110Z,5.4
2022-11-14T13:14:38.298Z,5.8
2022-11-14T13:15:49.093Z,5.8
2022-11-14T13:16:55.007Z,5.8
2022-11-14T13:18:03.557Z,4.2
2022-11-14T13:19:11.894Z,4.2
2022-11-14T13:20:20.261Z,4.2
2022-11-14T13:21:28.807Z,4.4
2022-11-14T13:22:37.144Z,4.4
2022-11-14T13:23:45.503Z,4.4
2022-11-14T13:24:54.025Z,5.1
2022-11-14T13:26:02.371Z,5.1
2022-11-14T13:27:10.778Z,5.1
2022-11-14T13:28:24.853Z,5.6
2022-11-14T13:29:27.644Z,5.6
2022-11-14T13:30:35.982Z,5.6
2022-11-14T13:31:44.523Z,6.4
2022-11-14T13:32:52.870Z,6.4
2022-11-14T13:34:01.204Z,6.4
2022-11-14T13:35:09.749Z,5.1
2022-11-14T13:36:18.102Z,5.1
2022-11-14T13:37:26.430Z,5.1
2022-11-14T13:38:34.966Z,5
2022-11-14T13:39:43.329Z,5
2022-11-14T13:40:51.656Z,5
2022-11-14T13:42:00.206Z,5.6
2022-11-14T13:43:08.532Z,5.6
2022-11-14T13:44:16.875Z,5.6
2022-11-14T13:45:25.419Z,5.3
2022-11-14T13:46:33.767Z,5.3
2022-11-14T13:47:42.101Z,5.3
2022-11-14T13:48:50.661Z,4.8
2022-11-14T13:49:59.027Z,4.8
2022-11-14T13:51:28.823Z,4.8
2022-11-14T13:52:15.946Z,4.8
2022-11-14T13:53:24.271Z,4.8
2022-11-14T13:54:32.607Z,4.8
2022-11-14T13:55:41.221Z,6.1
2022-11-14T13:56:49.534Z,6.1
2022-11-14T13:57:57.873Z,6.1
2022-11-14T13:59:06.438Z,5.6
2022-11-14T14:00:19.922Z,5.6
2022-11-14T14:01:23.173Z,5.6
2022-11-14T14:02:31.661Z,4.6
2022-11-14T14:03:39.996Z,4.6
2022-11-14T14:04:48.330Z,4.6
2022-11-14T14:05:59.869Z,6.3
2022-11-14T14:07:05.295Z,6.3
2022-11-14T14:08:13.559Z,6.3
2022-11-14T14:09:22.123Z,4.6
2022-11-14T14:10:30.471Z,4.6
2022-11-14T14:11:42.810Z,4.6
2022-11-14T14:12:47.355Z,5.6
2022-11-14T14:13:55.792Z,5.6
2022-11-14T14:15:04.027Z,5.6
2022-11-14T14:16:12.639Z,5.1
2022-11-14T14:17:20.974Z,5.1
2022-11-14T14:18:29.627Z,5.1
2022-11-14T14:19:37.872Z,5.8
2022-11-14T14:20:46.245Z,5.8
2022-11-14T14:21:55.157Z,5.8
2022-11-14T14:23:03.698Z,4.9
2022-11-14T14:24:12.027Z,4.9
2022-11-14T14:25:20.380Z,4.9
2022-11-14T14:26:28.936Z,4.8
2022-11-14T14:27:37.297Z,4.8
2022-11-14T14:28:45.613Z,4.8
2022-11-14T14:29:54.168Z,5
2022-11-14T15:03:02.888Z,0
2022-11-14T15:04:11.203Z,0
2022-11-14T15:05:19.554Z,0